Terminal Aerodrome Forecast
Issued by NWS

Home | Current Version | Previous Version | Text Only | Print | Product List | Glossary Off
Versions: 1 2 3 4 5 6 7 8 9 10 11 12 13

000
FTUS43 KICT 092300
TAFCNU
TAF
KCNU 092336Z 1000/1024 10006KT P6SM SCT120
     FM101000 13008KT P6SM VCTS SCT050 OVC090CB
     FM101600 15011G19KT P6SM SCT080 BKN150=

USA.gov is the U.S. government's official web portal to all federal, state and local government web resources and services.